createdAt,value
2023-06-16T00:00:33.446Z,4.78
2023-06-16T00:03:02.685Z,4.00
2023-06-16T00:05:31.173Z,4.63
2023-06-16T00:07:59.647Z,4.50
2023-06-16T00:10:27.542Z,5.25
2023-06-16T00:12:56.857Z,4.45
2023-06-16T00:15:25.272Z,4.35
2023-06-16T00:17:53.686Z,5.50
2023-06-16T00:20:22.685Z,3.78
2023-06-16T00:22:50.860Z,4.18
2023-06-16T00:25:20.276Z,4.28
2023-06-16T00:27:48.520Z,3.67
2023-06-16T00:30:18.148Z,4.57
2023-06-16T00:32:47.040Z,4.65
2023-06-16T00:35:14.907Z,3.13
2023-06-16T00:37:42.959Z,4.15
2023-06-16T00:40:11.858Z,3.70
2023-06-16T00:42:39.733Z,4.95
2023-06-16T00:45:08.696Z,4.28
2023-06-16T00:47:37.988Z,4.10
2023-06-16T00:50:06.869Z,3.83
2023-06-16T00:52:38.069Z,4.05
2023-06-16T00:55:09.666Z,4.20
2023-06-16T00:57:38.142Z,3.88
2023-06-16T01:00:08.365Z,3.97
2023-06-16T01:02:38.237Z,3.92
2023-06-16T01:05:08.070Z,4.38
2023-06-16T01:07:42.003Z,3.83
2023-06-16T01:10:18.230Z,3.92
2023-06-16T01:12:57.837Z,3.63
2023-06-16T01:15:28.882Z,4.70
2023-06-16T01:18:02.561Z,4.45
2023-06-16T01:20:40.406Z,4.15
2023-06-16T01:23:21.663Z,4.38
2023-06-16T01:25:54.817Z,3.72
2023-06-16T01:28:24.213Z,4.40
2023-06-16T01:30:53.471Z,4.63
2023-06-16T01:33:25.004Z,4.50
2023-06-16T01:35:57.093Z,4.07
2023-06-16T01:38:28.717Z,4.13
2023-06-16T01:41:00.644Z,4.15
2023-06-16T01:43:29.381Z,4.70
2023-06-16T01:46:00.806Z,4.38
2023-06-16T01:48:29.559Z,3.90
2023-06-16T01:50:57.506Z,5.18
2023-06-16T01:53:25.531Z,4.75
2023-06-16T01:55:54.101Z,4.70
2023-06-16T01:58:25.340Z,4.78
2023-06-16T02:00:58.647Z,5.20
2023-06-16T02:03:30.450Z,5.20
2023-06-16T02:06:02.025Z,5.18
2023-06-16T02:08:31.439Z,5.00
2023-06-16T02:10:59.592Z,5.30
2023-06-16T02:13:30.588Z,5.95
2023-06-16T02:15:59.013Z,5.03
2023-06-16T02:18:29.309Z,5.82
2023-06-16T02:20:57.463Z,4.57
2023-06-16T02:23:26.104Z,4.28
2023-06-16T02:25:54.348Z,5.47
2023-06-16T02:28:22.268Z,5.43
2023-06-16T02:30:51.747Z,4.82
2023-06-16T02:33:19.885Z,5.43
2023-06-16T02:35:47.875Z,6.05
2023-06-16T02:38:15.744Z,6.07
2023-06-16T02:40:43.784Z,5.90
2023-06-16T02:43:11.686Z,6.07
2023-06-16T02:45:40.733Z,6.03
2023-06-16T02:48:10.602Z,5.47
2023-06-16T02:50:39.036Z,6.35
2023-06-16T02:53:11.147Z,6.00
2023-06-16T02:55:39.461Z,5.90
2023-06-16T02:58:07.365Z,5.88
2023-06-16T03:00:36.320Z,6.20
2023-06-16T03:03:17.544Z,7.22
2023-06-16T03:05:51.429Z,5.82
2023-06-16T03:08:21.300Z,7.20
2023-06-16T03:10:49.203Z,6.80
2023-06-16T03:13:24.341Z,6.47
2023-06-16T03:15:53.770Z,6.05
2023-06-16T03:18:23.139Z,6.65
2023-06-16T03:20:51.047Z,6.70
2023-06-16T03:23:24.602Z,6.03
2023-06-16T03:25:52.446Z,6.10
2023-06-16T03:28:26.379Z,6.05
2023-06-16T03:30:54.912Z,6.18
2023-06-16T03:33:37.285Z,6.20
2023-06-16T03:36:06.256Z,7.18
2023-06-16T03:38:41.755Z,5.40
2023-06-16T03:41:10.116Z,6.45
2023-06-16T03:43:38.520Z,6.32
2023-06-16T03:46:06.481Z,6.13
2023-06-16T03:48:34.393Z,6.88
2023-06-16T03:51:06.214Z,5.90
2023-06-16T03:53:34.200Z,6.07
2023-06-16T03:56:02.678Z,6.72
2023-06-16T03:58:31.250Z,6.38
2023-06-16T04:00:59.481Z,5.63
2023-06-16T04:03:28.093Z,6.45
2023-06-16T04:05:56.788Z,6.80
2023-06-16T04:08:26.279Z,6.85
2023-06-16T04:10:58.525Z,6.75
2023-06-16T04:13:28.215Z,6.18
2023-06-16T04:15:56.296Z,7.40
2023-06-16T04:18:24.179Z,6.93
2023-06-16T04:20:52.205Z,7.53
2023-06-16T04:23:20.786Z,6.63
2023-06-16T04:25:50.079Z,6.60
2023-06-16T04:28:19.265Z,5.55
2023-06-16T04:30:51.775Z,5.38
2023-06-16T04:33:24.203Z,5.95
2023-06-16T04:35:53.810Z,5.60
2023-06-16T04:38:24.716Z,4.97
2023-06-16T04:40:55.940Z,7.05
2023-06-16T04:43:23.976Z,6.53
2023-06-16T04:45:52.074Z,6.70
2023-06-16T04:48:21.044Z,7.28
2023-06-16T04:50:49.160Z,6.50
2023-06-16T04:53:17.256Z,6.97
2023-06-16T04:55:45.437Z,5.60
2023-06-16T04:58:15.048Z,6.47
2023-06-16T05:00:43.078Z,6.18
2023-06-16T05:03:11.566Z,6.05
2023-06-16T05:05:39.666Z,5.70
2023-06-16T05:08:07.777Z,6.82
2023-06-16T05:10:36.797Z,6.53
2023-06-16T05:13:05.086Z,5.82
2023-06-16T05:15:34.448Z,5.55
2023-06-16T05:18:02.626Z,5.60
2023-06-16T05:20:33.102Z,6.10
2023-06-16T05:23:03.845Z,5.60
2023-06-16T05:25:32.215Z,6.18
2023-06-16T05:28:01.714Z,6.18
2023-06-16T05:30:31.565Z,6.43
2023-06-16T05:33:01.593Z,6.40
2023-06-16T05:35:29.687Z,6.85
2023-06-16T05:37:57.706Z,7.00
2023-06-16T05:40:25.881Z,5.82
2023-06-16T05:42:54.176Z,5.78
2023-06-16T05:45:22.636Z,6.35
2023-06-16T05:47:52.746Z,5.55
2023-06-16T05:50:22.535Z,5.90
2023-06-16T05:52:50.671Z,4.80
2023-06-16T05:55:18.870Z,4.82
2023-06-16T05:57:51.294Z,5.80
2023-06-16T06:00:20.363Z,4.63
2023-06-16T06:02:55.730Z,4.28
2023-06-16T06:05:31.360Z,5.60
2023-06-16T06:07:59.606Z,5.35
2023-06-16T06:10:28.437Z,4.55
2023-06-16T06:12:58.297Z,4.80
2023-06-16T06:15:30.151Z,5.05
2023-06-16T06:18:09.258Z,5.28
2023-06-16T06:20:42.968Z,5.25
2023-06-16T06:23:11.027Z,4.88
2023-06-16T06:25:41.389Z,5.30
2023-06-16T06:28:11.060Z,6.07
2023-06-16T06:30:39.095Z,4.45
2023-06-16T06:33:07.224Z,4.28
2023-06-16T06:35:36.626Z,4.18
2023-06-16T06:38:06.040Z,4.40
2023-06-16T06:40:36.453Z,4.50
2023-06-16T06:43:04.723Z,4.40
2023-06-16T06:45:50.588Z,4.10
2023-06-16T06:48:20.110Z,4.40
2023-06-16T06:50:50.279Z,4.65
2023-06-16T06:53:20.136Z,5.03
2023-06-16T06:55:48.225Z,4.88
2023-06-16T06:58:16.221Z,3.92
2023-06-16T07:00:44.068Z,4.25
2023-06-16T07:03:13.654Z,3.65
2023-06-16T07:05:41.655Z,4.00
2023-06-16T07:08:09.493Z,4.43
2023-06-16T07:10:38.955Z,3.75
2023-06-16T07:13:07.630Z,4.18
2023-06-16T07:15:35.547Z,3.67
2023-06-16T07:18:03.764Z,3.65
2023-06-16T07:20:32.224Z,4.22
2023-06-16T07:23:00.316Z,3.40
2023-06-16T07:25:29.306Z,3.70
2023-06-16T07:27:58.642Z,3.45
2023-06-16T07:30:26.791Z,3.30
2023-06-16T07:32:54.836Z,3.95
2023-06-16T07:35:22.773Z,3.70
2023-06-16T07:37:50.698Z,4.00
2023-06-16T07:40:18.930Z,3.33
2023-06-16T07:42:47.461Z,3.88
2023-06-16T07:45:18.526Z,4.10
2023-06-16T07:47:47.963Z,4.38
2023-06-16T07:50:16.306Z,3.95
2023-06-16T07:52:44.285Z,4.32
2023-06-16T07:55:12.575Z,4.00
2023-06-16T07:57:41.044Z,4.20
2023-06-16T08:00:12.402Z,3.80
2023-06-16T08:02:44.630Z,4.65
2023-06-16T08:05:13.698Z,4.18
2023-06-16T08:07:41.645Z,3.78
2023-06-16T08:10:10.189Z,4.75
2023-06-16T08:12:38.254Z,4.00
2023-06-16T08:15:07.150Z,4.28
2023-06-16T08:17:35.120Z,4.35
2023-06-16T08:20:05.789Z,4.50
2023-06-16T08:22:33.979Z,4.00
2023-06-16T08:25:02.544Z,3.75
2023-06-16T08:27:30.438Z,3.97
2023-06-16T08:29:58.314Z,4.57
2023-06-16T08:32:26.843Z,4.22
2023-06-16T08:34:54.757Z,4.25
2023-06-16T08:37:29.935Z,4.53
2023-06-16T08:39:59.155Z,4.20
2023-06-16T08:42:27.268Z,4.20
2023-06-16T08:44:55.311Z,4.05
2023-06-16T08:47:23.900Z,4.10
2023-06-16T08:49:53.701Z,3.75
2023-06-16T08:52:38.791Z,3.65
2023-06-16T08:55:14.601Z,3.85
2023-06-16T08:57:49.148Z,4.50
2023-06-16T09:00:19.179Z,4.78
2023-06-16T09:02:51.147Z,4.93
2023-06-16T09:05:20.189Z,4.00
2023-06-16T09:07:50.910Z,4.25
2023-06-16T09:10:19.719Z,3.92
2023-06-16T09:12:52.867Z,3.70
2023-06-16T09:15:21.133Z,4.82
2023-06-16T09:17:50.772Z,3.72
2023-06-16T09:20:20.441Z,3.70
2023-06-16T09:22:57.863Z,3.60
2023-06-16T09:25:25.856Z,3.45
2023-06-16T09:27:56.018Z,3.65
2023-06-16T09:30:31.608Z,3.60
2023-06-16T09:33:00.146Z,2.70
2023-06-16T09:35:29.871Z,3.08
2023-06-16T09:38:00.642Z,2.80
2023-06-16T09:40:30.024Z,3.17
2023-06-16T09:43:01.571Z,2.63
2023-06-16T09:45:31.944Z,2.65
2023-06-16T09:48:04.569Z,2.30
2023-06-16T09:50:33.763Z,2.72
2023-06-16T09:53:07.242Z,2.20
2023-06-16T09:55:38.907Z,2.65
2023-06-16T09:58:07.057Z,1.95
2023-06-16T10:00:35.817Z,2.17
2023-06-16T10:03:06.231Z,2.20
2023-06-16T10:05:38.339Z,1.85
2023-06-16T10:08:08.859Z,2.00
2023-06-16T10:10:40.742Z,1.95
2023-06-16T10:13:10.827Z,2.00
2023-06-16T10:15:40.909Z,2.45
2023-06-16T10:18:12.736Z,1.65
2023-06-16T10:20:43.608Z,1.77
2023-06-16T10:23:13.134Z,1.63
2023-06-16T10:25:42.043Z,1.35
2023-06-16T10:28:14.488Z,1.63
2023-06-16T10:30:43.862Z,1.98
2023-06-16T10:33:18.964Z,1.40
2023-06-16T10:36:03.864Z,1.85
2023-06-16T10:38:41.448Z,1.77
2023-06-16T10:41:15.901Z,1.80
2023-06-16T10:43:44.497Z,2.08
2023-06-16T10:46:16.632Z,1.58
2023-06-16T10:49:21.208Z,2.20
2023-06-16T10:51:50.895Z,1.80
2023-06-16T10:54:44.342Z,1.98
2023-06-16T10:57:14.647Z,2.17
2023-06-16T10:59:56.578Z,1.92
2023-06-16T11:02:26.330Z,1.95
2023-06-16T11:05:13.726Z,1.98
2023-06-16T11:07:42.937Z,2.42
2023-06-16T11:10:18.223Z,2.92
2023-06-16T11:12:47.169Z,2.10
2023-06-16T11:15:15.943Z,2.30
2023-06-16T11:17:45.681Z,2.00
2023-06-16T11:20:14.623Z,2.65
2023-06-16T11:22:44.037Z,2.28
2023-06-16T11:25:14.222Z,2.25
2023-06-16T11:27:42.906Z,2.85
2023-06-16T11:30:12.451Z,2.42
2023-06-16T11:32:41.625Z,2.50
2023-06-16T11:35:10.555Z,2.38
2023-06-16T11:37:42.714Z,2.72
2023-06-16T11:40:12.575Z,2.70
2023-06-16T11:42:41.957Z,2.50
2023-06-16T11:45:10.873Z,2.45
2023-06-16T11:47:40.209Z,2.95
2023-06-16T11:50:09.906Z,2.40
2023-06-16T11:52:38.233Z,2.72
2023-06-16T11:55:06.863Z,2.65
2023-06-16T11:57:38.355Z,2.55
2023-06-16T12:00:10.482Z,2.53
2023-06-16T12:02:39.304Z,2.70
2023-06-16T12:05:11.725Z,2.50
2023-06-16T12:07:40.134Z,2.70
2023-06-16T12:10:09.815Z,2.72
2023-06-16T12:12:39.800Z,2.70
2023-06-16T12:15:10.335Z,3.15
2023-06-16T12:17:40.651Z,2.88
2023-06-16T12:20:12.127Z,2.70
2023-06-16T12:22:40.683Z,2.42
2023-06-16T12:25:14.351Z,3.67
2023-06-16T12:27:45.763Z,2.65
2023-06-16T12:30:16.123Z,2.63
2023-06-16T12:32:46.689Z,2.80
2023-06-16T12:35:24.285Z,2.40
2023-06-16T12:37:52.414Z,2.72
2023-06-16T12:40:30.067Z,2.47
2023-06-16T12:42:57.929Z,2.30
2023-06-16T12:45:28.280Z,2.55
2023-06-16T12:47:56.411Z,2.80
2023-06-16T12:50:24.338Z,2.47
2023-06-16T12:52:52.196Z,2.75
2023-06-16T12:55:20.627Z,2.67
2023-06-16T12:57:48.538Z,2.45
2023-06-16T13:00:17.572Z,2.35
2023-06-16T13:02:49.323Z,2.42
2023-06-16T13:05:17.284Z,2.40
2023-06-16T13:07:45.436Z,2.50
2023-06-16T13:10:13.338Z,1.95
2023-06-16T13:12:49.492Z,2.80
2023-06-16T13:15:17.355Z,2.70
2023-06-16T13:17:46.612Z,3.05
2023-06-16T13:20:14.869Z,2.78
2023-06-16T13:22:42.757Z,3.28
2023-06-16T13:25:12.869Z,2.80
2023-06-16T13:27:42.285Z,2.45
2023-06-16T13:30:10.910Z,2.70
2023-06-16T13:32:38.855Z,2.67
2023-06-16T13:35:09.753Z,2.60
2023-06-16T13:37:37.595Z,2.70
2023-06-16T13:40:06.337Z,2.10
2023-06-16T13:42:34.710Z,2.47
2023-06-16T13:45:02.607Z,2.63
2023-06-16T13:47:30.517Z,2.42
2023-06-16T13:49:58.547Z,2.50
2023-06-16T13:52:29.399Z,2.50
2023-06-16T13:54:57.673Z,2.30
2023-06-16T13:57:25.560Z,2.60
2023-06-16T13:59:53.673Z,3.13
2023-06-16T14:02:21.564Z,2.50
2023-06-16T14:04:49.527Z,2.65
2023-06-16T14:07:17.421Z,2.33
2023-06-16T14:09:46.570Z,2.22
2023-06-16T14:12:14.444Z,2.50
2023-06-16T14:14:42.348Z,2.30
2023-06-16T14:17:10.316Z,2.33
2023-06-16T14:19:38.691Z,2.05
2023-06-16T14:22:07.107Z,1.95
2023-06-16T14:24:35.080Z,2.17
2023-06-16T14:27:04.715Z,2.22
2023-06-16T14:29:32.546Z,2.40
2023-06-16T14:32:00.488Z,2.22
2023-06-16T14:34:30.486Z,2.35
2023-06-16T14:36:58.974Z,2.53
2023-06-16T14:39:26.925Z,2.22
2023-06-16T14:41:54.855Z,2.42
2023-06-16T14:44:24.496Z,2.55
2023-06-16T14:46:53.273Z,2.33
2023-06-16T14:49:21.154Z,1.92
2023-06-16T14:51:49.018Z,2.22
2023-06-16T14:54:17.043Z,2.45
2023-06-16T14:56:44.880Z,2.53
2023-06-16T14:59:12.846Z,2.30
2023-06-16T15:01:42.456Z,2.35
2023-06-16T15:04:10.434Z,2.28
2023-06-16T15:06:38.568Z,2.65
2023-06-16T15:09:07.020Z,2.40
2023-06-16T15:11:34.990Z,2.15
2023-06-16T15:14:03.038Z,2.22
2023-06-16T15:16:31.417Z,2.08
2023-06-16T15:19:01.004Z,2.40
2023-06-16T15:21:28.865Z,2.42
2023-06-16T15:23:57.108Z,2.30
2023-06-16T15:26:25.396Z,2.58
2023-06-16T15:28:53.307Z,2.55
2023-06-16T15:31:21.197Z,2.67
2023-06-16T15:33:49.083Z,2.38
2023-06-16T15:36:18.478Z,2.65
2023-06-16T15:39:09.907Z,2.65
2023-06-16T15:41:39.283Z,2.58
2023-06-16T15:44:08.622Z,2.88
2023-06-16T15:46:39.000Z,2.85
2023-06-16T15:49:06.931Z,3.25
2023-06-16T15:51:38.252Z,2.47
2023-06-16T15:54:06.324Z,3.50
2023-06-16T15:56:34.344Z,2.78
2023-06-16T15:59:02.320Z,2.83
2023-06-16T16:01:30.431Z,4.60
2023-06-16T16:03:58.542Z,4.45
2023-06-16T16:06:26.504Z,3.60
2023-06-16T16:08:55.675Z,3.35
2023-06-16T16:11:23.511Z,3.67
2023-06-16T16:13:51.404Z,2.70
2023-06-16T16:16:19.280Z,3.15
2023-06-16T16:18:47.187Z,3.45
2023-06-16T16:21:15.110Z,3.50
2023-06-16T16:23:43.120Z,4.32
2023-06-16T16:26:12.612Z,3.50
2023-06-16T16:28:41.637Z,3.15
2023-06-16T16:31:09.688Z,3.50
2023-06-16T16:33:37.589Z,4.30
2023-06-16T16:36:05.946Z,4.43
2023-06-16T16:38:34.475Z,3.45
2023-06-16T16:41:02.609Z,4.10
2023-06-16T16:43:31.794Z,3.83
2023-06-16T16:45:59.729Z,3.17
2023-06-16T16:48:27.668Z,3.05
2023-06-16T16:50:55.835Z,3.10
2023-06-16T16:53:23.759Z,3.13
2023-06-16T16:55:52.024Z,3.85
2023-06-16T16:58:20.017Z,3.25
2023-06-16T17:00:49.960Z,3.85
2023-06-16T17:03:17.963Z,3.78
2023-06-16T17:05:45.919Z,2.70
2023-06-16T17:08:13.865Z,2.47
2023-06-16T17:10:41.797Z,3.30
2023-06-16T17:13:10.444Z,2.42
2023-06-16T17:15:38.654Z,2.47
2023-06-16T17:18:08.106Z,3.08
2023-06-16T17:20:36.720Z,3.42
2023-06-16T17:23:05.879Z,3.38
2023-06-16T17:25:33.921Z,3.40
2023-06-16T17:28:01.995Z,3.80
2023-06-16T17:30:29.991Z,2.92
2023-06-16T17:33:00.416Z,3.60
2023-06-16T17:35:31.199Z,3.30
2023-06-16T17:38:00.433Z,3.22
2023-06-16T17:40:31.420Z,3.30
2023-06-16T17:42:59.448Z,3.20
2023-06-16T17:45:27.462Z,3.33
2023-06-16T17:47:55.557Z,3.83
2023-06-16T17:50:27.830Z,3.30
2023-06-16T17:52:59.243Z,3.45
2023-06-16T17:55:27.234Z,2.88
2023-06-16T17:57:55.162Z,3.45
2023-06-16T18:00:23.827Z,3.13
2023-06-16T18:02:52.690Z,2.38
2023-06-16T18:05:23.474Z,3.55
2023-06-16T18:07:51.853Z,2.83
2023-06-16T18:10:21.659Z,2.20
2023-06-16T18:12:50.145Z,2.97
2023-06-16T18:15:18.127Z,2.90
2023-06-16T18:17:46.117Z,2.47
2023-06-16T18:20:14.202Z,2.97
2023-06-16T18:22:42.338Z,2.20
2023-06-16T18:25:10.885Z,2.15
2023-06-16T18:27:40.301Z,2.08
2023-06-16T18:30:09.633Z,3.00
2023-06-16T18:32:39.728Z,2.90
2023-06-16T18:35:08.622Z,2.70
2023-06-16T18:37:44.272Z,2.63
2023-06-16T18:40:13.675Z,2.60
2023-06-16T18:42:43.613Z,2.88
2023-06-16T18:45:12.231Z,2.60
2023-06-16T18:47:40.367Z,2.83
2023-06-16T18:50:10.034Z,2.65
2023-06-16T18:52:38.234Z,2.65
2023-06-16T18:55:07.569Z,3.30
2023-06-16T18:57:36.610Z,3.47
2023-06-16T19:00:09.642Z,2.95
2023-06-16T19:02:39.071Z,3.03
2023-06-16T19:05:09.514Z,3.55
2023-06-16T19:07:39.828Z,2.80
2023-06-16T19:10:11.792Z,2.95
2023-06-16T19:12:40.773Z,2.95
2023-06-16T19:15:13.103Z,3.13
2023-06-16T19:17:42.500Z,3.28
2023-06-16T19:20:13.718Z,2.75
2023-06-16T19:22:41.880Z,3.25
2023-06-16T19:25:11.046Z,3.70
2023-06-16T19:27:40.254Z,2.90
2023-06-16T19:30:11.328Z,3.65
2023-06-16T19:32:40.719Z,4.15
2023-06-16T19:35:09.447Z,3.00
2023-06-16T19:37:38.007Z,3.72
2023-06-16T19:40:07.902Z,3.90
2023-06-16T19:42:36.069Z,3.55
2023-06-16T19:45:04.122Z,3.60
2023-06-16T19:47:33.714Z,4.35
2023-06-16T19:50:01.667Z,3.83
2023-06-16T19:52:29.746Z,3.72
2023-06-16T19:54:57.722Z,3.95
2023-06-16T19:57:25.851Z,3.65
2023-06-16T19:59:54.064Z,4.03
2023-06-16T20:02:22.346Z,5.13
2023-06-16T20:04:52.905Z,4.40
2023-06-16T20:07:21.910Z,4.32
2023-06-16T20:09:50.368Z,4.97
2023-06-16T20:12:21.621Z,5.55
2023-06-16T20:14:49.818Z,3.92
2023-06-16T20:17:17.871Z,5.07
2023-06-16T20:19:46.045Z,5.28
2023-06-16T20:22:15.448Z,4.40
2023-06-16T20:24:43.366Z,4.40
2023-06-16T20:27:13.790Z,4.60
2023-06-16T20:29:43.160Z,4.30
2023-06-16T20:32:11.301Z,4.78
2023-06-16T20:34:39.417Z,4.07
2023-06-16T20:37:08.864Z,5.22
2023-06-16T20:39:38.842Z,5.60
2023-06-16T20:42:08.000Z,4.78
2023-06-16T20:44:37.745Z,4.60
2023-06-16T20:47:07.319Z,4.60
2023-06-16T20:49:38.090Z,5.20
2023-06-16T20:52:06.995Z,4.40
2023-06-16T20:54:35.046Z,4.63
2023-06-16T20:57:07.676Z,4.80
2023-06-16T20:59:36.627Z,5.53
2023-06-16T21:02:07.079Z,5.80
2023-06-16T21:04:35.070Z,5.25
2023-06-16T21:07:03.797Z,4.88
2023-06-16T21:09:32.411Z,5.05
2023-06-16T21:12:00.506Z,6.45
2023-06-16T21:14:29.727Z,5.20
2023-06-16T21:16:57.580Z,4.88
2023-06-16T21:19:37.866Z,5.22
2023-06-16T21:22:10.095Z,5.32
2023-06-16T21:24:37.932Z,4.90
2023-06-16T21:27:06.346Z,5.07
2023-06-16T21:29:35.646Z,5.03
2023-06-16T21:32:03.657Z,5.00
2023-06-16T21:34:31.626Z,5.18
2023-06-16T21:37:03.085Z,5.13
2023-06-16T21:39:32.536Z,5.05
2023-06-16T21:42:00.606Z,4.60
2023-06-16T21:44:28.480Z,4.43
2023-06-16T21:46:57.801Z,4.93
2023-06-16T21:49:25.715Z,4.72
2023-06-16T21:51:53.550Z,4.88
2023-06-16T21:54:21.495Z,4.57
2023-06-16T21:56:49.407Z,4.82
2023-06-16T21:59:17.826Z,4.78
2023-06-16T22:01:45.804Z,5.25
2023-06-16T22:04:15.090Z,4.95
2023-06-16T22:06:46.171Z,4.63
2023-06-16T22:09:14.532Z,3.97
2023-06-16T22:11:42.482Z,5.05
2023-06-16T22:14:11.366Z,5.32
2023-06-16T22:16:39.318Z,5.05
2023-06-16T22:19:07.231Z,5.55
2023-06-16T22:21:36.531Z,5.15
2023-06-16T22:24:04.730Z,4.30
2023-06-16T22:26:33.714Z,4.90
2023-06-16T22:29:01.663Z,4.70
2023-06-16T22:31:29.885Z,4.55
2023-06-16T22:33:57.887Z,4.47
2023-06-16T22:36:25.996Z,4.20
2023-06-16T22:38:55.313Z,4.55
2023-06-16T22:41:23.193Z,5.10
2023-06-16T22:43:51.108Z,3.97
2023-06-16T22:46:19.178Z,4.45
2023-06-16T22:48:47.951Z,5.20
2023-06-16T22:51:18.320Z,5.43
2023-06-16T22:53:47.997Z,4.93
2023-06-16T22:56:17.373Z,5.03
2023-06-16T22:58:45.619Z,5.20
2023-06-16T23:01:13.663Z,5.78
2023-06-16T23:03:41.952Z,5.07
2023-06-16T23:06:09.993Z,4.60
2023-06-16T23:08:38.079Z,4.88
2023-06-16T23:11:06.042Z,5.05
2023-06-16T23:13:35.514Z,4.28
2023-06-16T23:16:03.476Z,4.30
2023-06-16T23:18:31.476Z,4.80
2023-06-16T23:21:00.310Z,5.20
2023-06-16T23:23:29.444Z,5.10
2023-06-16T23:25:57.539Z,6.35
2023-06-16T23:28:26.864Z,7.07
2023-06-16T23:30:59.578Z,6.90
2023-06-16T23:33:30.155Z,6.30
2023-06-16T23:35:59.345Z,6.80
2023-06-16T23:38:27.245Z,6.65
2023-06-16T23:40:55.100Z,5.35
2023-06-16T23:43:23.377Z,4.93
2023-06-16T23:45:51.580Z,4.72
2023-06-16T23:48:20.936Z,4.28
2023-06-16T23:50:48.872Z,4.22
2023-06-16T23:53:16.790Z,4.75
2023-06-16T23:55:44.672Z,5.20
2023-06-16T23:58:12.545Z,5.28
